Time;durP1;ratioP1;P1;durP2;ratioP2;P2;SDS_P1;SDS_P2;PMS_P1;PMS_P2;Temp;Humidity;BMP_temperature;BMP_pressure;BME280_temperature;BME280_humidity;BME280_pressure;Samples;Min_cycle;Max_cycle;Signal;HPM_P1;HPM_P2
2023/05/06 00:01:46;;;;;;;6.23;5.63;;;14.60;99.90;;;;;;4995983;28;20206;-77
2023/05/06 00:04:14;;;;;;;7.00;6.27;;;14.60;99.90;;;;;;4979375;28;20230;-77
2023/05/06 00:06:41;;;;;;;8.60;6.70;;;14.60;99.90;;;;;;4993481;28;20278;-77
2023/05/06 00:09:08;;;;;;;7.27;6.47;;;14.60;99.90;;;;;;4979599;28;20311;-78
2023/05/06 00:11:36;;;;;;;7.33;6.63;;;14.50;99.90;;;;;;4984615;28;20229;-78
2023/05/06 00:14:03;;;;;;;7.67;6.87;;;14.50;99.90;;;;;;4976332;28;20224;-78
2023/05/06 00:16:30;;;;;;;7.73;6.93;;;14.50;99.90;;;;;;4975636;28;20275;-79
2023/05/06 00:18:57;;;;;;;8.17;6.80;;;14.50;99.90;;;;;;4975967;28;20868;-78
2023/05/06 00:21:24;;;;;;;7.33;6.63;;;14.50;99.90;;;;;;4975931;28;20257;-77
2023/05/06 00:23:51;;;;;;;8.37;6.90;;;14.50;99.90;;;;;;4993876;28;20193;-78
2023/05/06 00:26:19;;;;;;;6.93;6.23;;;14.50;99.90;;;;;;4979088;28;20705;-77
2023/05/06 00:28:47;;;;;;;6.37;5.77;;;14.50;99.90;;;;;;4975602;28;20217;-78
2023/05/06 00:31:13;;;;;;;6.53;5.93;;;14.50;99.90;;;;;;4976390;28;20195;-77
2023/05/06 00:33:41;;;;;;;7.03;6.40;;;14.50;99.90;;;;;;5000987;28;20754;-77
2023/05/06 00:36:08;;;;;;;7.77;6.93;;;14.50;99.90;;;;;;4997300;28;20223;-77
2023/05/06 00:38:35;;;;;;;7.53;6.73;;;14.50;99.90;;;;;;4979543;28;20210;-77
2023/05/06 00:41:02;;;;;;;7.00;6.30;;;14.50;99.90;;;;;;4979798;28;20235;-78
2023/05/06 00:43:29;;;;;;;8.50;7.60;;;14.50;99.90;;;;;;4979560;28;20209;-78
2023/05/06 00:45:57;;;;;;;8.40;7.10;;;14.50;99.90;;;;;;4980010;28;20207;-78
2023/05/06 00:48:24;;;;;;;8.20;6.43;;;14.50;99.90;;;;;;4979145;28;20211;-77
2023/05/06 00:50:51;;;;;;;6.83;6.23;;;14.50;99.90;;;;;;4979740;28;20653;-77
2023/05/06 00:53:20;;;;;;;7.37;6.20;;;14.40;99.90;;;;;;4979193;28;20222;-78
2023/05/06 00:55:47;;;;;;;7.53;5.90;;;14.40;99.90;;;;;;4979218;28;20221;-78
2023/05/06 00:58:15;;;;;;;8.20;7.40;;;14.40;99.90;;;;;;4996802;28;20190;-78
2023/05/06 01:00:42;;;;;;;7.30;6.60;;;14.40;99.90;;;;;;4996604;28;20232;-78
2023/05/06 01:03:10;;;;;;;8.33;7.30;;;14.40;99.90;;;;;;4987632;28;20230;-77
2023/05/06 01:05:48;;;;;;;8.50;7.60;;;14.40;99.90;;;;;;4996601;28;20206;-78
2023/05/06 01:08:25;;;;;;;8.00;7.20;;;14.40;99.90;;;;;;4979375;28;20228;-76
2023/05/06 01:10:55;;;;;;;8.13;7.33;;;14.30;99.90;;;;;;4995113;28;20307;-77
2023/05/06 01:13:29;;;;;;;8.23;7.43;;;14.40;99.90;;;;;;4978673;28;20210;-78
2023/05/06 01:15:59;;;;;;;9.90;7.73;;;14.30;99.90;;;;;;4978926;28;20299;-77
2023/05/06 01:18:30;;;;;;;7.00;6.40;;;14.30;99.90;;;;;;4984898;28;20198;-77
2023/05/06 01:20:58;;;;;;;8.10;7.30;;;14.30;99.90;;;;;;4979280;28;20266;-78
2023/05/06 01:23:28;;;;;;;8.30;7.50;;;14.30;99.90;;;;;;4978612;28;20235;-77
2023/05/06 01:25:55;;;;;;;8.47;7.67;;;14.20;99.90;;;;;;4979044;28;20193;-78
2023/05/06 01:28:22;;;;;;;10.23;7.63;;;14.10;99.90;;;;;;4978602;28;20222;-78
2023/05/06 01:30:55;;;;;;;7.20;6.50;;;14.10;99.90;;;;;;4978857;28;20663;-78
2023/05/06 01:33:32;;;;;;;7.60;6.87;;;14.00;99.90;;;;;;5003681;28;20190;-77
2023/05/06 01:36:08;;;;;;;7.90;7.10;;;13.90;99.90;;;;;;4979023;28;20227;-76
2023/05/06 01:38:45;;;;;;;8.20;7.33;;;13.80;99.90;;;;;;4978760;28;20209;-78
2023/05/06 01:41:15;;;;;;;8.07;7.30;;;13.80;99.90;;;;;;4979085;28;20209;-77
2023/05/06 01:43:44;;;;;;;8.67;7.63;;;13.70;99.90;;;;;;4995758;28;20282;-78
2023/05/06 01:46:15;;;;;;;8.20;7.40;;;13.70;99.90;;;;;;4978527;28;20207;-78
2023/05/06 01:48:45;;;;;;;8.60;7.80;;;13.60;99.90;;;;;;4988569;28;20737;-78
2023/05/06 01:51:12;;;;;;;8.17;7.37;;;13.60;99.90;;;;;;4991779;28;20208;-78
2023/05/06 01:53:40;;;;;;;9.07;7.77;;;13.50;99.90;;;;;;4988762;28;20197;-76
2023/05/06 01:56:07;;;;;;;9.00;8.10;;;13.50;99.90;;;;;;4986472;28;20203;-78
2023/05/06 01:58:34;;;;;;;8.97;8.07;;;13.40;99.90;;;;;;4983223;28;20196;-79
2023/05/06 02:01:01;;;;;;;8.73;7.83;;;13.40;99.90;;;;;;4978397;28;20197;-77
2023/05/06 02:03:28;;;;;;;9.57;8.57;;;13.30;99.90;;;;;;4985700;28;20202;-78
2023/05/06 02:05:55;;;;;;;8.97;8.17;;;13.30;99.90;;;;;;4978081;28;20194;-77
2023/05/06 02:08:22;;;;;;;8.43;7.63;;;13.30;99.90;;;;;;4978542;28;20268;-77
2023/05/06 02:10:51;;;;;;;9.97;8.97;;;13.40;99.90;;;;;;4978020;28;20271;-77
2023/05/06 02:13:19;;;;;;;9.70;8.73;;;13.40;99.90;;;;;;4977816;28;20201;-77
2023/05/06 02:15:46;;;;;;;9.33;8.43;;;13.40;99.90;;;;;;4977962;28;20323;-78
2023/05/06 02:18:17;;;;;;;8.40;7.60;;;13.40;99.90;;;;;;4977874;28;20199;-77
2023/05/06 02:20:44;;;;;;;9.30;8.20;;;13.40;99.90;;;;;;4977570;28;20313;-78
2023/05/06 02:23:15;;;;;;;9.17;8.27;;;13.30;99.90;;;;;;4977940;28;20576;-78
2023/05/06 02:25:41;;;;;;;9.83;7.93;;;13.40;99.90;;;;;;4977790;28;20291;-78
2023/05/06 02:28:10;;;;;;;8.83;7.93;;;13.30;99.90;;;;;;4977623;28;20212;-78
2023/05/06 02:30:36;;;;;;;9.27;8.40;;;13.30;99.90;;;;;;4977924;28;20741;-84
2023/05/06 02:33:03;;;;;;;8.83;7.93;;;13.20;99.90;;;;;;4976716;28;20201;-81
2023/05/06 02:35:30;;;;;;;8.80;7.90;;;13.20;99.90;;;;;;4978488;28;20194;-76
2023/05/06 02:37:57;;;;;;;8.00;7.20;;;13.10;99.90;;;;;;4978049;28;20248;-77
2023/05/06 02:40:24;;;;;;;8.67;7.87;;;13.10;99.90;;;;;;4978053;28;20260;-77
2023/05/06 02:42:51;;;;;;;8.27;7.47;;;13.10;99.90;;;;;;4977769;28;20200;-78
2023/05/06 02:45:19;;;;;;;9.63;8.20;;;13.10;99.90;;;;;;4995868;28;20212;-78
2023/05/06 02:47:46;;;;;;;9.07;7.77;;;13.00;99.90;;;;;;4985568;28;20205;-77
2023/05/06 02:50:12;;;;;;;8.80;7.90;;;13.00;99.90;;;;;;4982140;28;20229;-76
2023/05/06 02:52:39;;;;;;;7.97;7.20;;;13.00;99.90;;;;;;4977392;28;20289;-77
2023/05/06 02:55:07;;;;;;;8.10;7.30;;;13.00;99.90;;;;;;4996580;28;20200;-80
2023/05/06 02:57:34;;;;;;;8.47;7.63;;;12.90;99.90;;;;;;4979263;28;20687;-79
2023/05/06 03:00:00;;;;;;;8.40;7.60;;;12.90;99.90;;;;;;4995553;28;20291;-79
2023/05/06 03:02:29;;;;;;;8.43;7.63;;;12.90;99.90;;;;;;4972895;28;20274;-79
2023/05/06 03:04:55;;;;;;;8.30;7.50;;;12.80;99.90;;;;;;4977260;28;20197;-79
2023/05/06 03:07:22;;;;;;;8.30;7.50;;;12.80;99.90;;;;;;4977343;28;20704;-79
2023/05/06 03:09:49;;;;;;;7.80;7.00;;;12.70;99.90;;;;;;4977311;28;20321;-79
2023/05/06 03:12:16;;;;;;;7.50;6.80;;;12.70;99.90;;;;;;4977348;28;20240;-79
2023/05/06 03:14:43;;;;;;;7.53;6.73;;;12.70;99.90;;;;;;4977424;28;20197;-80
2023/05/06 03:17:11;;;;;;;7.20;6.50;;;12.60;99.90;;;;;;4977004;28;20207;-80
2023/05/06 03:19:39;;;;;;;6.57;5.97;;;12.60;99.90;;;;;;4977512;28;20236;-79
2023/05/06 03:22:08;;;;;;;7.53;6.73;;;12.60;99.90;;;;;;4976991;28;20197;-80
2023/05/06 03:24:38;;;;;;;7.77;7.00;;;12.50;99.90;;;;;;4970868;28;20252;-78
2023/05/06 03:27:06;;;;;;;7.13;6.50;;;12.50;99.90;;;;;;4987700;28;20193;-80
2023/05/06 03:29:34;;;;;;;7.93;7.13;;;12.40;99.90;;;;;;4976502;28;20221;-80
2023/05/06 03:32:02;;;;;;;7.87;7.07;;;12.40;99.90;;;;;;4981306;28;20196;-81
2023/05/06 03:34:30;;;;;;;7.97;7.00;;;12.40;99.90;;;;;;4985087;28;20232;-81
2023/05/06 03:37:00;;;;;;;7.37;6.73;;;12.30;99.90;;;;;;4985968;28;20204;-80
2023/05/06 03:39:28;;;;;;;9.07;8.17;;;12.30;99.90;;;;;;4984553;28;20568;-77
2023/05/06 03:41:55;;;;;;;8.43;7.63;;;12.20;99.90;;;;;;4982232;28;20197;-78
2023/05/06 03:44:23;;;;;;;8.30;7.50;;;12.20;99.90;;;;;;4979441;28;20703;-79
2023/05/06 03:46:50;;;;;;;8.83;7.93;;;12.10;99.90;;;;;;4979077;28;20205;-79
2023/05/06 03:49:20;;;;;;;7.60;6.90;;;12.10;99.90;;;;;;4986591;28;20227;-78
2023/05/06 03:51:48;;;;;;;8.43;7.63;;;12.00;99.90;;;;;;4988530;28;20197;-80
2023/05/06 03:54:17;;;;;;;8.43;7.73;;;12.00;99.90;;;;;;4975276;28;20200;-79
2023/05/06 03:56:44;;;;;;;8.50;7.70;;;11.90;99.90;;;;;;4977383;28;20228;-81
2023/05/06 03:59:12;;;;;;;7.70;7.00;;;11.90;99.90;;;;;;4988258;28;20220;-78
2023/05/06 04:01:41;;;;;;;7.70;7.07;;;11.90;99.90;;;;;;4988826;28;20704;-78
2023/05/06 04:04:09;;;;;;;8.20;7.40;;;11.90;99.90;;;;;;4990391;28;20242;-79
2023/05/06 04:06:37;;;;;;;7.53;6.83;;;11.90;99.90;;;;;;5004608;28;20280;-79
2023/05/06 04:09:05;;;;;;;8.40;7.60;;;11.90;99.90;;;;;;4986269;28;20224;-79
2023/05/06 04:11:35;;;;;;;7.50;6.80;;;12.00;99.90;;;;;;4987263;28;20205;-79
2023/05/06 04:14:04;;;;;;;7.73;6.93;;;12.00;99.90;;;;;;4986886;28;20250;-79
2023/05/06 04:16:30;;;;;;;7.10;6.50;;;12.00;99.90;;;;;;4994701;28;20577;-79
2023/05/06 04:18:57;;;;;;;8.10;7.30;;;12.00;99.90;;;;;;4985990;28;20217;-80
2023/05/06 04:21:25;;;;;;;7.73;7.03;;;12.00;99.90;;;;;;4987574;28;20197;-80
2023/05/06 04:23:57;;;;;;;7.80;7.10;;;12.10;99.90;;;;;;4986782;28;20205;-79
2023/05/06 04:26:32;;;;;;;7.97;7.20;;;12.10;99.90;;;;;;4983183;28;20202;-79
2023/05/06 04:29:01;;;;;;;7.73;7.03;;;12.20;99.90;;;;;;4975186;28;20228;-79
2023/05/06 04:31:29;;;;;;;7.13;6.50;;;12.20;99.90;;;;;;4975420;28;20205;-77
2023/05/06 04:34:01;;;;;;;7.17;6.50;;;12.30;99.90;;;;;;4974751;28;20197;-81
2023/05/06 04:36:29;;;;;;;6.87;6.27;;;12.40;99.90;;;;;;4986668;28;20196;-80
2023/05/06 04:39:10;;;;;;;7.07;6.47;;;12.40;99.90;;;;;;4969665;28;20215;-79
2023/05/06 04:41:37;;;;;;;7.40;6.70;;;12.50;99.90;;;;;;4975192;28;20259;-79
2023/05/06 04:44:06;;;;;;;6.30;5.80;;;12.50;99.90;;;;;;4974704;28;20207;-78
2023/05/06 04:46:33;;;;;;;6.80;6.20;;;12.60;99.90;;;;;;4975515;28;20228;-79
2023/05/06 04:49:01;;;;;;;6.97;6.27;;;12.70;99.90;;;;;;4977178;28;20224;-81
2023/05/06 04:51:30;;;;;;;6.60;6.00;;;12.80;99.90;;;;;;4972935;28;20194;-79
2023/05/06 04:53:58;;;;;;;7.07;6.47;;;12.90;99.90;;;;;;4968146;28;20244;-79
2023/05/06 04:56:24;;;;;;;6.50;5.90;;;13.00;99.90;;;;;;4976332;28;20235;-80
2023/05/06 04:58:51;;;;;;;6.67;6.07;;;13.10;99.90;;;;;;4977566;28;20235;-78
2023/05/06 05:01:20;;;;;;;6.80;6.20;;;13.10;99.90;;;;;;5002235;28;20197;-79
2023/05/06 05:03:47;;;;;;;6.20;5.30;;;13.30;99.90;;;;;;5012099;28;20201;-77
2023/05/06 05:06:14;;;;;;;6.17;5.57;;;13.40;99.90;;;;;;4994624;28;20205;-76
2023/05/06 05:08:40;;;;;;;6.30;5.70;;;13.50;99.90;;;;;;4999511;28;20206;-78
2023/05/06 05:11:09;;;;;;;5.97;5.47;;;13.80;99.90;;;;;;4996141;28;20210;-79
2023/05/06 05:13:36;;;;;;;6.33;5.70;;;14.20;99.90;;;;;;5001953;28;20579;-79
2023/05/06 05:16:05;;;;;;;5.50;5.00;;;14.70;99.90;;;;;;4998430;28;20666;-78
2023/05/06 05:18:35;;;;;;;5.90;5.40;;;15.20;99.90;;;;;;4994021;28;20197;-76
2023/05/06 05:21:09;;;;;;;5.77;5.27;;;15.30;99.90;;;;;;4994112;28;20728;-79
2023/05/06 05:23:36;;;;;;;6.07;5.57;;;15.40;99.90;;;;;;4998061;28;20212;-81
2023/05/06 05:26:03;;;;;;;6.00;5.40;;;15.50;99.90;;;;;;4996265;28;20199;-79
2023/05/06 05:28:31;;;;;;;5.80;5.17;;;15.50;99.90;;;;;;4987723;28;20199;-84
2023/05/06 05:31:02;;;;;;;5.70;5.07;;;15.40;99.90;;;;;;4992236;28;20252;-79
2023/05/06 05:33:31;;;;;;;5.70;5.20;;;15.40;99.90;;;;;;4977477;28;20203;-80
2023/05/06 05:35:59;;;;;;;6.63;5.87;;;15.20;99.90;;;;;;4977970;28;20198;-79
2023/05/06 05:38:27;;;;;;;6.23;5.67;;;15.10;99.90;;;;;;4977778;28;20249;-79
2023/05/06 05:40:54;;;;;;;8.23;6.10;;;15.00;99.90;;;;;;4976662;28;20586;-79
2023/05/06 05:43:22;;;;;;;6.47;5.83;;;15.00;99.90;;;;;;4977357;28;20204;-79
2023/05/06 05:45:49;;;;;;;7.87;6.00;;;14.90;99.90;;;;;;4977452;28;20206;-79
2023/05/06 05:48:16;;;;;;;6.87;6.17;;;15.00;99.90;;;;;;4992878;28;20205;-79
2023/05/06 05:50:43;;;;;;;5.70;5.20;;;15.00;99.90;;;;;;4984133;28;20227;-79
2023/05/06 05:53:11;;;;;;;6.70;6.03;;;14.90;99.90;;;;;;4988946;28;20221;-79
2023/05/06 05:55:38;;;;;;;6.07;5.47;;;14.80;99.90;;;;;;4987400;28;20340;-80
2023/05/06 05:58:05;;;;;;;6.73;6.13;;;14.60;99.90;;;;;;4986582;28;20204;-78
2023/05/06 06:00:33;;;;;;;6.33;5.80;;;14.60;99.90;;;;;;4988836;28;20224;-81
2023/05/06 06:03:08;;;;;;;7.40;6.73;;;14.60;99.90;;;;;;4984077;28;20279;-79
2023/05/06 06:05:35;;;;;;;6.63;6.03;;;14.60;99.90;;;;;;4994029;28;20212;-80
2023/05/06 06:08:02;;;;;;;7.20;6.37;;;14.50;99.90;;;;;;4980697;28;20213;-81
2023/05/06 06:10:31;;;;;;;6.77;6.13;;;14.50;99.90;;;;;;4999169;28;20228;-82
2023/05/06 06:12:59;;;;;;;5.97;5.47;;;14.60;99.90;;;;;;4992068;28;20253;-79
2023/05/06 06:15:29;;;;;;;6.80;6.20;;;14.60;99.90;;;;;;4986926;28;20198;-79
2023/05/06 06:17:55;;;;;;;6.30;5.70;;;14.60;99.90;;;;;;4995197;28;20238;-82
2023/05/06 06:20:25;;;;;;;7.10;6.40;;;14.70;99.90;;;;;;4987144;28;20224;-82
2023/05/06 06:22:53;;;;;;;6.07;5.57;;;14.70;99.90;;;;;;4974262;28;20204;-79
2023/05/06 06:25:20;;;;;;;6.53;5.93;;;14.70;99.90;;;;;;4978468;28;20709;-79
2023/05/06 06:27:48;;;;;;;7.77;7.07;;;14.80;99.90;;;;;;4996088;28;20227;-80
2023/05/06 06:30:15;;;;;;;6.57;5.97;;;14.90;99.90;;;;;;4989784;28;20785;-86
2023/05/06 06:32:48;;;;;;;6.80;6.13;;;15.00;99.90;;;;;;4989589;28;20210;-77
2023/05/06 06:35:15;;;;;;;6.10;5.50;;;15.20;99.90;;;;;;4990915;28;20303;-78
2023/05/06 06:37:42;;;;;;;7.07;6.40;;;15.60;99.90;;;;;;4985553;28;20242;-78
2023/05/06 06:40:10;;;;;;;6.37;5.77;;;15.80;99.90;;;;;;4994707;28;20240;-78
2023/05/06 06:42:37;;;;;;;7.07;6.47;;;16.10;99.90;;;;;;4995875;28;20259;-78
2023/05/06 06:45:20;;;;;;;6.93;6.33;;;16.10;99.90;;;;;;4977005;28;20208;-77
2023/05/06 06:47:46;;;;;;;6.90;6.20;;;16.00;99.90;;;;;;4982953;28;20217;-78
2023/05/06 06:50:13;;;;;;;6.13;5.53;;;15.90;99.90;;;;;;4994725;28;20251;-78
2023/05/06 06:52:40;;;;;;;6.13;5.53;;;15.90;99.90;;;;;;4976835;28;20207;-77
2023/05/06 06:55:08;;;;;;;5.90;5.40;;;15.80;99.90;;;;;;4979430;28;20248;-78
2023/05/06 06:57:37;;;;;;;5.93;5.43;;;15.90;99.90;;;;;;4977052;28;20725;-79
2023/05/06 07:00:04;;;;;;;5.57;5.03;;;15.90;99.90;;;;;;4977234;28;20279;-78
2023/05/06 07:02:32;;;;;;;6.40;5.63;;;15.90;99.90;;;;;;4996636;28;20594;-80
2023/05/06 07:04:59;;;;;;;5.90;5.30;;;16.00;99.90;;;;;;4994254;28;20205;-78
2023/05/06 07:07:26;;;;;;;5.50;5.00;;;16.10;99.90;;;;;;5000184;28;20201;-77
2023/05/06 07:09:52;;;;;;;6.53;5.23;;;16.40;99.90;;;;;;4993203;28;20228;-79
2023/05/06 07:12:19;;;;;;;5.90;4.93;;;16.70;99.90;;;;;;4977709;28;20733;-78
2023/05/06 07:14:46;;;;;;;5.70;5.20;;;16.80;99.90;;;;;;4975678;28;20631;-78
2023/05/06 07:17:13;;;;;;;5.57;5.07;;;16.80;99.90;;;;;;4997979;28;20281;-78
2023/05/06 07:19:41;;;;;;;6.80;5.30;;;16.90;99.90;;;;;;4976340;28;20285;-78
2023/05/06 07:22:07;;;;;;;5.50;5.00;;;17.00;99.90;;;;;;4975440;28;20752;-79
2023/05/06 07:24:34;;;;;;;4.73;4.33;;;16.90;99.90;;;;;;4975995;28;20210;-79
2023/05/06 07:27:01;;;;;;;5.80;5.27;;;16.70;99.90;;;;;;4993320;28;20285;-79
2023/05/06 07:29:28;;;;;;;5.73;4.90;;;16.80;99.90;;;;;;4993374;28;20296;-78
2023/05/06 07:31:55;;;;;;;5.57;5.07;;;17.00;99.90;;;;;;4993983;28;20287;-78
2023/05/06 07:34:22;;;;;;;5.67;5.17;;;17.20;99.90;;;;;;4993052;28;20194;-78
2023/05/06 07:36:50;;;;;;;4.83;4.33;;;17.60;99.90;;;;;;5000690;28;20199;-77
2023/05/06 07:39:17;;;;;;;5.97;4.57;;;18.00;99.90;;;;;;4975856;28;20282;-78
2023/05/06 07:41:45;;;;;;;4.60;4.20;;;18.30;99.90;;;;;;4993666;28;20224;-79
2023/05/06 07:44:12;;;;;;;5.10;4.63;;;18.90;99.90;;;;;;4992588;28;20193;-79
2023/05/06 07:46:39;;;;;;;4.60;4.20;;;19.40;99.90;;;;;;4982502;28;20243;-78
2023/05/06 07:49:05;;;;;;;6.43;4.07;;;19.70;99.90;;;;;;4994208;28;20601;-78
2023/05/06 07:51:32;;;;;;;6.20;4.27;;;19.90;99.90;;;;;;4993954;28;20709;-79
2023/05/06 07:54:00;;;;;;;4.97;4.40;;;19.80;99.90;;;;;;4994886;28;20205;-78
2023/05/06 07:56:27;;;;;;;4.37;3.83;;;19.90;99.90;;;;;;4993166;28;20205;-79
2023/05/06 07:58:54;;;;;;;4.43;4.03;;;19.60;99.90;;;;;;4993436;28;20217;-78
2023/05/06 08:01:21;;;;;;;4.83;3.73;;;19.30;99.90;;;;;;4994252;28;20189;-80
2023/05/06 08:03:48;;;;;;;4.60;4.20;;;19.40;99.90;;;;;;4976318;28;20200;-81
2023/05/06 08:06:14;;;;;;;5.43;3.70;;;19.80;99.90;;;;;;4975928;28;20205;-78
2023/05/06 08:08:41;;;;;;;3.63;3.33;;;20.20;99.90;;;;;;4975645;28;20677;-78
2023/05/06 08:11:09;;;;;;;4.23;3.47;;;20.60;99.90;;;;;;4993061;28;20291;-78
2023/05/06 08:13:36;;;;;;;3.90;3.60;;;20.90;99.90;;;;;;4993159;28;20662;-78
2023/05/06 08:16:03;;;;;;;5.70;3.70;;;21.10;99.90;;;;;;4993792;28;20197;-79
2023/05/06 08:18:30;;;;;;;3.93;3.57;;;20.90;99.90;;;;;;4980949;28;20201;-80
2023/05/06 08:20:57;;;;;;;3.20;3.00;;;21.30;99.90;;;;;;4977084;28;20224;-79
2023/05/06 08:23:23;;;;;;;3.10;2.90;;;21.50;99.90;;;;;;4993273;28;20252;-79
2023/05/06 08:25:50;;;;;;;3.73;3.30;;;21.60;99.90;;;;;;4993826;28;20205;-79
2023/05/06 08:28:19;;;;;;;3.00;2.80;;;20.80;99.90;;;;;;4976932;28;20208;-79
2023/05/06 08:30:47;;;;;;;5.60;2.80;;;20.70;99.90;;;;;;4993537;28;20267;-77
2023/05/06 08:33:14;;;;;;;3.50;3.20;;;20.90;99.90;;;;;;4975786;28;20205;-79
2023/05/06 08:35:40;;;;;;;7.27;3.20;;;20.90;99.90;;;;;;4992755;28;20197;-78
2023/05/06 08:38:07;;;;;;;5.13;3.37;;;21.30;99.90;;;;;;4984442;28;20201;-79
2023/05/06 08:40:36;;;;;;;3.63;3.10;;;21.70;99.90;;;;;;4976422;28;20631;-79
2023/05/06 08:43:03;;;;;;;3.90;3.20;;;22.10;99.90;;;;;;4975209;28;20828;-79
2023/05/06 08:45:32;;;;;;;3.47;3.20;;;21.90;99.90;;;;;;4975323;28;20213;-79
2023/05/06 08:48:00;;;;;;;3.70;3.30;;;21.90;99.90;;;;;;4982315;28;20216;-78
2023/05/06 08:50:26;;;;;;;3.40;3.00;;;21.90;99.90;;;;;;4975026;28;20728;-79
2023/05/06 08:52:54;;;;;;;3.30;2.60;;;21.80;99.90;;;;;;4975008;28;20233;-78
2023/05/06 08:55:22;;;;;;;3.10;2.87;;;22.00;99.90;;;;;;4977007;28;20207;-80
2023/05/06 08:57:50;;;;;;;2.83;2.57;;;22.60;99.90;;;;;;4979554;28;20205;-80
2023/05/06 09:00:17;;;;;;;2.97;2.67;;;22.60;99.90;;;;;;4996422;28;20209;-78
2023/05/06 09:02:45;;;;;;;2.87;2.60;;;22.80;99.90;;;;;;4996006;28;20607;-79
2023/05/06 09:05:12;;;;;;;3.27;2.60;;;22.70;99.90;;;;;;4986362;28;20292;-78
2023/05/06 09:07:39;;;;;;;5.77;2.93;;;22.20;99.90;;;;;;4999664;28;20674;-78
2023/05/06 09:10:07;;;;;;;3.53;2.90;;;21.90;99.90;;;;;;4995970;28;20224;-78
2023/05/06 09:12:37;;;;;;;3.97;3.00;;;22.00;99.90;;;;;;4995191;28;20690;-78
2023/05/06 09:15:05;;;;;;;2.90;2.60;;;22.50;99.90;;;;;;4996064;28;20637;-80
2023/05/06 09:17:32;;;;;;;4.30;2.80;;;22.90;99.90;;;;;;4986370;28;20205;-79
2023/05/06 09:20:00;;;;;;;2.80;2.60;;;22.90;99.90;;;;;;4981153;28;20229;-79
2023/05/06 09:22:29;;;;;;;4.30;2.63;;;23.20;99.90;;;;;;4980906;28;20189;-79
2023/05/06 09:24:57;;;;;;;2.90;2.70;;;23.60;99.90;;;;;;4998833;28;20228;-79
2023/05/06 09:27:25;;;;;;;2.80;2.57;;;24.00;99.90;;;;;;4980481;28;20681;-80
2023/05/06 09:30:03;;;;;;;2.90;2.60;;;23.90;99.90;;;;;;4996743;28;20276;-77
2023/05/06 09:32:31;;;;;;;2.70;2.50;;;23.30;99.90;;;;;;4979515;28;20225;-77
2023/05/06 09:34:59;;;;;;;3.23;2.37;;;22.70;99.90;;;;;;4997309;28;20197;-77
2023/05/06 09:37:26;;;;;;;2.63;2.40;;;22.40;99.90;;;;;;4987135;28;20201;-75
2023/05/06 09:39:55;;;;;;;2.50;2.30;;;22.60;99.90;;;;;;4996487;28;20235;-77
2023/05/06 09:42:24;;;;;;;2.63;2.43;;;22.70;99.90;;;;;;4997109;28;20225;-76
2023/05/06 09:44:53;;;;;;;2.67;2.57;;;22.70;99.90;;;;;;4996495;28;20201;-76
2023/05/06 09:47:21;;;;;;;3.30;3.10;;;22.90;99.90;;;;;;5006091;28;20744;-76
2023/05/06 09:49:48;;;;;;;4.30;4.00;;;23.20;99.90;;;;;;4994212;28;20225;-79
2023/05/06 09:52:18;;;;;;;3.80;3.50;;;23.30;99.90;;;;;;4990835;28;20213;-78
2023/05/06 09:54:45;;;;;;;3.40;3.10;;;23.50;99.90;;;;;;4985421;28;20197;-80
2023/05/06 09:57:14;;;;;;;3.33;2.80;;;23.80;99.90;;;;;;4995721;28;20203;-78
2023/05/06 09:59:42;;;;;;;3.50;3.20;;;24.10;99.90;;;;;;4995663;28;20225;-79
2023/05/06 10:02:11;;;;;;;5.60;5.20;;;24.10;99.90;;;;;;4977283;28;20248;-79
2023/05/06 10:04:41;;;;;;;2.40;2.27;;;24.00;99.90;;;;;;4994444;28;20212;-76
2023/05/06 10:07:10;;;;;;;2.87;2.47;;;23.90;99.90;;;;;;4997189;28;20294;-76
2023/05/06 10:09:39;;;;;;;2.60;2.40;;;23.40;99.90;;;;;;4994674;28;20256;-76
2023/05/06 10:12:08;;;;;;;5.00;2.80;;;23.30;99.90;;;;;;4994669;28;20233;-75
2023/05/06 10:14:35;;;;;;;4.67;4.23;;;22.60;99.90;;;;;;4976886;28;20406;-76
2023/05/06 10:17:05;;;;;;;4.23;3.93;;;22.00;99.90;;;;;;4977869;28;20209;-76
2023/05/06 10:19:33;;;;;;;3.50;2.93;;;22.00;99.90;;;;;;4977856;28;20225;-80
2023/05/06 10:22:06;;;;;;;3.93;3.73;;;22.20;99.90;;;;;;4996665;28;20193;-79
2023/05/06 10:24:46;;;;;;;5.23;4.83;;;22.10;99.90;;;;;;4979970;28;20275;-79
2023/05/06 10:27:18;;;;;;;2.27;2.17;;;22.30;99.90;;;;;;4985841;28;20231;-79
2023/05/06 10:29:46;;;;;;;4.10;3.70;;;22.20;99.90;;;;;;4983916;28;20721;-79
2023/05/06 10:32:13;;;;;;;3.50;3.30;;;22.20;99.90;;;;;;4981408;28;20225;-82
2023/05/06 10:34:46;;;;;;;3.60;3.40;;;22.40;99.90;;;;;;4987233;28;20205;-81
2023/05/06 10:37:14;;;;;;;3.40;3.20;;;22.40;99.90;;;;;;4987591;28;20213;-78
2023/05/06 10:39:42;;;;;;;3.87;3.53;;;22.50;99.90;;;;;;5003185;28;20217;-78
2023/05/06 10:42:10;;;;;;;3.47;3.27;;;22.60;99.90;;;;;;5001555;28;20200;-77
2023/05/06 10:44:57;;;;;;;3.90;3.60;;;22.50;99.90;;;;;;4990265;28;20237;-81
2023/05/06 10:47:24;;;;;;;3.83;2.50;;;22.30;99.90;;;;;;4991774;28;20248;-79
2023/05/06 10:50:19;;;;;;;2.87;2.63;;;22.30;99.90;;;;;;4977053;28;20241;-79
2023/05/06 10:52:47;;;;;;;3.00;2.80;;;22.10;99.90;;;;;;4991737;28;20229;-80
2023/05/06 10:55:29;;;;;;;2.33;2.13;;;22.10;99.90;;;;;;5007558;28;20204;-79
2023/05/06 10:57:56;;;;;;;3.10;2.13;;;21.80;99.90;;;;;;4994051;28;20204;-79
2023/05/06 11:00:25;;;;;;;2.60;2.40;;;21.70;99.90;;;;;;4991377;28;20267;-82
2023/05/06 11:02:56;;;;;;;2.77;2.10;;;21.90;99.90;;;;;;4995589;28;20193;-82
2023/05/06 11:05:23;;;;;;;3.80;2.67;;;21.90;99.90;;;;;;4996874;28;20193;-82
2023/05/06 11:07:51;;;;;;;3.60;3.40;;;21.70;99.90;;;;;;4997309;28;20193;-82
2023/05/06 11:10:32;;;;;;;2.40;1.90;;;21.60;99.90;;;;;;4989703;28;20217;-84
2023/05/06 11:13:17;;;;;;;3.80;3.50;;;21.60;99.90;;;;;;4993935;28;20323;-83
2023/05/06 11:15:46;;;;;;;5.80;5.40;;;21.50;99.90;;;;;;4993008;28;20201;-83
2023/05/06 11:18:41;;;;;;;5.00;4.60;;;21.50;99.90;;;;;;4997231;28;20201;-80
2023/05/06 11:21:39;;;;;;;5.20;4.90;;;21.60;99.90;;;;;;4999752;28;20193;-79
2023/05/06 11:24:07;;;;;;;5.00;4.70;;;21.50;99.90;;;;;;4992022;28;20209;-82
2023/05/06 11:26:34;;;;;;;4.60;4.30;;;21.50;99.90;;;;;;4997689;28;20197;-83
2023/05/06 11:29:03;;;;;;;6.43;6.03;;;21.60;99.90;;;;;;4997037;28;20304;-81
2023/05/06 11:31:41;;;;;;;4.57;4.20;;;21.80;99.90;;;;;;4992011;28;20209;-79
2023/05/06 11:34:10;;;;;;;4.80;4.60;;;21.80;99.90;;;;;;4988656;28;20350;-80
2023/05/06 11:36:45;;;;;;;3.73;3.53;;;22.00;99.90;;;;;;5000139;28;20233;-81
2023/05/06 11:39:13;;;;;;;3.70;3.50;;;22.10;99.90;;;;;;4991868;28;20224;-82
2023/05/06 11:41:40;;;;;;;4.40;4.20;;;22.10;99.90;;;;;;4989821;28;20197;-77
2023/05/06 11:44:08;;;;;;;2.80;2.70;;;22.00;99.90;;;;;;4994985;28;20427;-79
2023/05/06 11:46:36;;;;;;;1.90;1.80;;;21.90;99.90;;;;;;4993638;28;20197;-82
2023/05/06 11:49:03;;;;;;;1.90;1.80;;;21.90;99.90;;;;;;4999934;28;20253;-82
2023/05/06 11:51:30;;;;;;;2.23;2.13;;;21.60;99.90;;;;;;4990351;28;20224;-81
2023/05/06 11:54:06;;;;;;;1.90;1.80;;;21.60;99.90;;;;;;4993131;28;20205;-80
2023/05/06 11:56:47;;;;;;;1.90;1.80;;;21.90;99.90;;;;;;5004001;28;20561;-82
2023/05/06 11:59:14;;;;;;;2.67;1.90;;;22.10;99.90;;;;;;5004824;28;20216;-82
2023/05/06 12:01:45;;;;;;;1.90;1.80;;;22.20;99.90;;;;;;4998682;28;20209;-82
2023/05/06 12:04:13;;;;;;;2.00;1.90;;;22.30;99.90;;;;;;4996812;28;20389;-83
2023/05/06 12:06:40;;;;;;;2.10;1.80;;;22.20;99.90;;;;;;4992101;28;20197;-82
2023/05/06 12:09:09;;;;;;;4.70;1.80;;;22.00;99.90;;;;;;4997906;28;20308;-81
2023/05/06 12:11:37;;;;;;;2.27;2.07;;;21.90;99.90;;;;;;4997960;28;20256;-81
2023/05/06 12:14:06;;;;;;;1.97;1.87;;;21.80;99.90;;;;;;4995535;28;20208;-80
2023/05/06 12:16:34;;;;;;;1.90;1.80;;;21.80;99.90;;;;;;4981946;28;20209;-81
2023/05/06 12:19:02;;;;;;;1.90;1.80;;;21.90;99.90;;;;;;5000392;28;20244;-80
2023/05/06 12:21:30;;;;;;;1.87;1.77;;;22.00;99.90;;;;;;5002141;28;20199;-81
2023/05/06 12:23:59;;;;;;;2.00;1.80;;;22.20;99.90;;;;;;5000499;28;20331;-81
2023/05/06 12:26:27;;;;;;;1.80;1.70;;;22.50;99.90;;;;;;4990209;28;20200;-81
2023/05/06 12:29:07;;;;;;;1.80;1.70;;;22.20;99.90;;;;;;4982161;28;20231;-80
2023/05/06 12:31:34;;;;;;;1.90;1.80;;;22.10;99.90;;;;;;4994650;28;20216;-79
2023/05/06 12:34:03;;;;;;;1.53;1.53;;;22.20;99.90;;;;;;4992875;28;20680;-81
2023/05/06 12:36:31;;;;;;;2.17;1.70;;;22.50;99.90;;;;;;5001994;28;20744;-80
2023/05/06 12:39:00;;;;;;;7.70;5.37;;;22.50;99.90;;;;;;4995098;28;20243;-81
2023/05/06 12:41:36;;;;;;;5.57;5.07;;;22.60;99.90;;;;;;5005022;28;20201;-79
2023/05/06 12:44:24;;;;;;;4.53;4.20;;;22.60;99.90;;;;;;5002141;28;20629;-81
2023/05/06 12:46:51;;;;;;;3.97;3.50;;;22.50;99.90;;;;;;4991585;28;20258;-80
2023/05/06 12:49:19;;;;;;;3.30;3.10;;;22.30;99.90;;;;;;5001754;28;20728;-81
2023/05/06 12:51:46;;;;;;;2.80;2.60;;;22.10;99.90;;;;;;4997151;28;20621;-80
2023/05/06 12:54:34;;;;;;;2.90;2.70;;;22.10;99.90;;;;;;4993173;28;20201;-80
2023/05/06 12:57:01;;;;;;;2.97;2.70;;;22.20;99.90;;;;;;4986060;28;20205;-80